Terminal Aerodrome Forecast
Issued by NWS

Home | Current Version | Previous Version | Text Only | Print | Product List | Glossary On
Versions: 1 2 3 4 5 6 7 8 9 10 11 12 13 14 15 16 17 18 19 20
000
FTUS44 KLIX 040500
TAFMCB
TAF
KMCB 040520Z 0406/0506 18004KT P6SM BKN008
      TEMPO 0408/0412 1SM BR
     FM041800 19009KT P6SM VCTS BKN020CB
     FM042100 19008KT P6SM VCTS BKN025CB
     FM050000 19007KT 2SM SHRA BKN035
     FM050500 25006KT 2SM SHRA OVC010=

USA.gov is the U.S. government's official web portal to all federal, state and local government web resources and services.